This is the latest recevied weather packets stored in our database for station/object N0YWB. If no packets are shown the sender has not sent any weather packets the latest 10 day(s).
| Time | Temp. | Humidity | Pressure | Rain* | Wind** | Luminosity | Snow |
|---|---|---|---|---|---|---|---|
| 1777849517 | 24.44° C | 36% | 1008.3 hPa | 0 mm | - | - | - |
| 1777845927 | 24.44° C | 36% | 1008.2 hPa | 0 mm | - | - | - |
| 1777845317 | 25° C | 37% | 1008.2 hPa | 0 mm | - | - | - |
| 1777842330 | 25° C | 38% | 1008.4 hPa | 0 mm | - | - | - |
| 1777840540 | 25.56° C | 41% | 1008.6 hPa | 0 mm | - | - | - |
| 1777839923 | 25° C | 40% | 1008.8 hPa | 0 mm | - | - | - |
| 1777838131 | 25° C | 42% | 1008.7 hPa | 0 mm | - | - | - |
| 1777835126 | 24.44° C | 45% | 1009 hPa | 0 mm | - | - | - |
| 1777823716 | 18.33° C | 55% | 1011.2 hPa | 0 mm | - | - | - |
| 1777822515 | 17.78° C | 55% | 1011.4 hPa | 0 mm | - | - | - |
| 1777817724 | 13.33° C | 63% | 1012.4 hPa | 0 mm | - | - | - |
| 1777815336 | 12.22° C | 65% | 1012.9 hPa | 0 mm | - | - | - |
| 1777813524 | 11.67° C | 67% | 1013 hPa | 0 mm | - | - | - |
| 1777807532 | 11.11° C | 66% | 1013 hPa | 0 mm | - | - | - |
| 1777803929 | 11.67° C | 64% | 1014.8 hPa | 0 mm | - | - | - |
| 1777802138 | 10.56° C | 65% | 1014.7 hPa | 0 mm | - | - | - |
| 1777787725 | 9.44° C | 69% | 1017 hPa | 0 mm | - | - | - |
| 1777785932 | 9.44° C | 68% | 1017.3 hPa | 0 mm | - | - | - |
| 1777783524 | 8.89° C | 69% | 1017.4 hPa | 0 mm | - | - | - |
| 1777781116 | 8.89° C | 68% | 1017.9 hPa | 0 mm | - | - | - |
| 1777776916 | 9.44° C | 64% | 1018.5 hPa | 0 mm | - | - | - |
| 1777775723 | 9.44° C | 63% | 1018.6 hPa | 0 mm | - | - | - |
| 1777772126 | 11.11° C | 60% | 1018.3 hPa | 0 mm | - | - | - |
| 1777768530 | 15° C | 47% | 1018.5 hPa | 0 mm | - | - | - |
| 1777766122 | 15.56° C | 42% | 1018.7 hPa | 0 mm | - | - | - |
* Rain latest hour (hover to see other rain measurements)
** Current wind speed in m/s (hover to see current wind gust speed)